sensor_id;sensor_type;location;lat;lon;timestamp;temperature;humidity
39847;DHT22;25517;52.422;10.782;2022-07-12T00:01:04;15.30;99.90
39847;DHT22;25517;52.422;10.782;2022-07-12T00:03:30;15.20;99.90
39847;DHT22;25517;52.422;10.782;2022-07-12T00:05:56;15.20;99.90
39847;DHT22;25517;52.422;10.782;2022-07-12T00:08:22;15.10;99.90
39847;DHT22;25517;52.422;10.782;2022-07-12T00:10:47;15.10;99.90
39847;DHT22;25517;52.422;10.782;2022-07-12T00:13:12;15.10;99.90
39847;DHT22;25517;52.422;10.782;2022-07-12T00:15:38;15.00;99.90
39847;DHT22;25517;52.422;10.782;2022-07-12T00:18:04;15.00;99.90
39847;DHT22;25517;52.422;10.782;2022-07-12T00:20:29;15.00;99.90
39847;DHT22;25517;52.422;10.782;2022-07-12T00:22:55;15.00;99.90
39847;DHT22;25517;52.422;10.782;2022-07-12T00:25:21;14.90;99.90
39847;DHT22;25517;52.422;10.782;2022-07-12T00:27:46;14.90;99.90
39847;DHT22;25517;52.422;10.782;2022-07-12T00:30:12;14.90;99.90
39847;DHT22;25517;52.422;10.782;2022-07-12T00:32:37;14.80;99.90
39847;DHT22;25517;52.422;10.782;2022-07-12T00:35:04;14.80;99.90
39847;DHT22;25517;52.422;10.782;2022-07-12T00:37:31;14.80;99.90
39847;DHT22;25517;52.422;10.782;2022-07-12T00:39:57;14.70;99.90
39847;DHT22;25517;52.422;10.782;2022-07-12T00:42:24;14.70;99.90
39847;DHT22;25517;52.422;10.782;2022-07-12T00:44:50;14.70;99.90
39847;DHT22;25517;52.422;10.782;2022-07-12T00:47:35;14.70;99.90
39847;DHT22;25517;52.422;10.782;2022-07-12T00:50:05;14.70;99.90
39847;DHT22;25517;52.422;10.782;2022-07-12T00:52:30;14.70;99.90
39847;DHT22;25517;52.422;10.782;2022-07-12T00:54:56;14.70;99.90
39847;DHT22;25517;52.422;10.782;2022-07-12T00:57:22;14.60;99.90
39847;DHT22;25517;52.422;10.782;2022-07-12T00:59:48;14.60;99.90
39847;DHT22;25517;52.422;10.782;2022-07-12T01:02:13;14.60;99.90
39847;DHT22;25517;52.422;10.782;2022-07-12T01:04:39;14.50;99.90
39847;DHT22;25517;52.422;10.782;2022-07-12T01:07:04;14.50;99.90
39847;DHT22;25517;52.422;10.782;2022-07-12T01:09:30;14.50;99.90
39847;DHT22;25517;52.422;10.782;2022-07-12T01:11:56;14.50;99.90
39847;DHT22;25517;52.422;10.782;2022-07-12T01:14:22;14.50;99.90
39847;DHT22;25517;52.422;10.782;2022-07-12T01:16:47;14.50;99.90
39847;DHT22;25517;52.422;10.782;2022-07-12T01:19:13;14.50;99.90
39847;DHT22;25517;52.422;10.782;2022-07-12T01:21:47;14.40;99.90
39847;DHT22;25517;52.422;10.782;2022-07-12T01:24:14;14.40;99.90
39847;DHT22;25517;52.422;10.782;2022-07-12T01:26:40;14.40;99.90
39847;DHT22;25517;52.422;10.782;2022-07-12T01:29:07;14.40;99.90
39847;DHT22;25517;52.422;10.782;2022-07-12T01:31:36;14.40;99.90
39847;DHT22;25517;52.422;10.782;2022-07-12T01:34:03;14.40;99.90
39847;DHT22;25517;52.422;10.782;2022-07-12T01:36:29;14.40;99.90
39847;DHT22;25517;52.422;10.782;2022-07-12T01:38:55;14.30;99.90
39847;DHT22;25517;52.422;10.782;2022-07-12T01:41:22;14.30;99.90
39847;DHT22;25517;52.422;10.782;2022-07-12T01:43:49;14.30;99.90
39847;DHT22;25517;52.422;10.782;2022-07-12T01:46:14;14.30;99.90
39847;DHT22;25517;52.422;10.782;2022-07-12T01:48:40;14.30;99.90
39847;DHT22;25517;52.422;10.782;2022-07-12T01:51:06;14.20;99.90
39847;DHT22;25517;52.422;10.782;2022-07-12T01:53:31;14.30;99.90
39847;DHT22;25517;52.422;10.782;2022-07-12T01:55:57;14.20;99.90
39847;DHT22;25517;52.422;10.782;2022-07-12T01:58:22;14.20;99.90
39847;DHT22;25517;52.422;10.782;2022-07-12T02:00:49;14.20;99.90
39847;DHT22;25517;52.422;10.782;2022-07-12T02:03:18;14.20;99.90
39847;DHT22;25517;52.422;10.782;2022-07-12T02:05:44;14.20;99.90
39847;DHT22;25517;52.422;10.782;2022-07-12T02:08:10;14.10;99.90
39847;DHT22;25517;52.422;10.782;2022-07-12T02:10:35;14.10;99.90
39847;DHT22;25517;52.422;10.782;2022-07-12T02:13:04;14.10;99.90
39847;DHT22;25517;52.422;10.782;2022-07-12T02:15:30;14.10;99.90
39847;DHT22;25517;52.422;10.782;2022-07-12T02:17:56;14.00;99.90
39847;DHT22;25517;52.422;10.782;2022-07-12T02:20:22;14.00;99.90
39847;DHT22;25517;52.422;10.782;2022-07-12T02:22:47;14.00;99.90
39847;DHT22;25517;52.422;10.782;2022-07-12T02:25:13;14.00;99.90
39847;DHT22;25517;52.422;10.782;2022-07-12T02:27:39;14.00;99.90
39847;DHT22;25517;52.422;10.782;2022-07-12T02:30:06;13.90;99.90
39847;DHT22;25517;52.422;10.782;2022-07-12T02:32:32;13.90;99.90
39847;DHT22;25517;52.422;10.782;2022-07-12T02:34:58;13.80;99.90
39847;DHT22;25517;52.422;10.782;2022-07-12T02:37:24;13.80;99.90
39847;DHT22;25517;52.422;10.782;2022-07-12T02:39:49;13.80;99.90
39847;DHT22;25517;52.422;10.782;2022-07-12T02:42:14;13.80;99.90
39847;DHT22;25517;52.422;10.782;2022-07-12T02:44:40;13.80;99.90
39847;DHT22;25517;52.422;10.782;2022-07-12T02:47:05;13.80;99.90
39847;DHT22;25517;52.422;10.782;2022-07-12T02:49:31;13.70;99.90
39847;DHT22;25517;52.422;10.782;2022-07-12T02:51:56;13.70;99.90
39847;DHT22;25517;52.422;10.782;2022-07-12T02:54:22;13.70;99.90
39847;DHT22;25517;52.422;10.782;2022-07-12T02:56:47;13.80;99.90
39847;DHT22;25517;52.422;10.782;2022-07-12T02:59:13;13.80;99.90
39847;DHT22;25517;52.422;10.782;2022-07-12T03:01:38;13.80;99.90
39847;DHT22;25517;52.422;10.782;2022-07-12T03:04:04;13.80;99.90
39847;DHT22;25517;52.422;10.782;2022-07-12T03:06:29;13.80;99.90
39847;DHT22;25517;52.422;10.782;2022-07-12T03:08:55;13.80;99.90
39847;DHT22;25517;52.422;10.782;2022-07-12T03:11:20;13.90;99.90
39847;DHT22;25517;52.422;10.782;2022-07-12T03:13:46;13.90;99.90
39847;DHT22;25517;52.422;10.782;2022-07-12T03:16:11;13.90;99.90
39847;DHT22;25517;52.422;10.782;2022-07-12T03:18:39;13.90;99.90
39847;DHT22;25517;52.422;10.782;2022-07-12T03:21:05;13.90;99.90
39847;DHT22;25517;52.422;10.782;2022-07-12T03:23:30;13.90;99.90
39847;DHT22;25517;52.422;10.782;2022-07-12T03:25:56;14.00;99.90
39847;DHT22;25517;52.422;10.782;2022-07-12T03:28:21;14.00;99.90
39847;DHT22;25517;52.422;10.782;2022-07-12T03:30:47;14.00;99.90
39847;DHT22;25517;52.422;10.782;2022-07-12T03:33:12;13.90;99.90
39847;DHT22;25517;52.422;10.782;2022-07-12T03:35:38;13.90;99.90
39847;DHT22;25517;52.422;10.782;2022-07-12T03:38:04;13.90;99.90
39847;DHT22;25517;52.422;10.782;2022-07-12T03:40:31;13.90;99.90
39847;DHT22;25517;52.422;10.782;2022-07-12T03:42:57;13.90;99.90
39847;DHT22;25517;52.422;10.782;2022-07-12T03:45:23;13.90;99.90
39847;DHT22;25517;52.422;10.782;2022-07-12T03:47:49;13.90;99.90
39847;DHT22;25517;52.422;10.782;2022-07-12T03:50:15;13.80;99.90
39847;DHT22;25517;52.422;10.782;2022-07-12T03:52:41;13.80;99.90
39847;DHT22;25517;52.422;10.782;2022-07-12T03:55:08;13.80;99.90
39847;DHT22;25517;52.422;10.782;2022-07-12T03:57:35;13.80;99.90
39847;DHT22;25517;52.422;10.782;2022-07-12T04:00:04;13.80;99.90
39847;DHT22;25517;52.422;10.782;2022-07-12T04:02:31;13.90;99.90
39847;DHT22;25517;52.422;10.782;2022-07-12T04:04:56;13.90;99.90
39847;DHT22;25517;52.422;10.782;2022-07-12T04:07:22;13.90;99.90
39847;DHT22;25517;52.422;10.782;2022-07-12T04:09:47;13.90;99.90
39847;DHT22;25517;52.422;10.782;2022-07-12T04:12:13;14.00;99.90
39847;DHT22;25517;52.422;10.782;2022-07-12T04:14:39;13.90;99.90
39847;DHT22;25517;52.422;10.782;2022-07-12T04:17:04;14.00;99.90
39847;DHT22;25517;52.422;10.782;2022-07-12T04:19:34;14.00;99.90
39847;DHT22;25517;52.422;10.782;2022-07-12T04:22:00;13.90;99.90
39847;DHT22;25517;52.422;10.782;2022-07-12T04:24:25;14.00;99.90
39847;DHT22;25517;52.422;10.782;2022-07-12T04:26:51;14.00;99.90
39847;DHT22;25517;52.422;10.782;2022-07-12T04:29:18;14.00;99.90
39847;DHT22;25517;52.422;10.782;2022-07-12T04:31:44;14.10;99.90
39847;DHT22;25517;52.422;10.782;2022-07-12T04:34:09;14.10;99.90
39847;DHT22;25517;52.422;10.782;2022-07-12T04:36:35;14.10;99.90
39847;DHT22;25517;52.422;10.782;2022-07-12T04:39:01;14.20;99.90
39847;DHT22;25517;52.422;10.782;2022-07-12T04:41:27;14.20;99.90
39847;DHT22;25517;52.422;10.782;2022-07-12T04:43:52;14.20;99.90
39847;DHT22;25517;52.422;10.782;2022-07-12T04:46:18;14.30;99.90
39847;DHT22;25517;52.422;10.782;2022-07-12T04:48:43;14.30;99.90
39847;DHT22;25517;52.422;10.782;2022-07-12T04:51:09;14.40;99.90
39847;DHT22;25517;52.422;10.782;2022-07-12T04:53:35;14.50;99.90
39847;DHT22;25517;52.422;10.782;2022-07-12T04:56:00;14.50;99.90
39847;DHT22;25517;52.422;10.782;2022-07-12T04:58:26;14.60;99.90
39847;DHT22;25517;52.422;10.782;2022-07-12T05:00:51;14.60;99.90
39847;DHT22;25517;52.422;10.782;2022-07-12T05:03:17;14.60;99.90
39847;DHT22;25517;52.422;10.782;2022-07-12T05:05:43;14.70;99.90
39847;DHT22;25517;52.422;10.782;2022-07-12T05:08:08;14.70;99.90
39847;DHT22;25517;52.422;10.782;2022-07-12T05:10:34;14.80;99.90
39847;DHT22;25517;52.422;10.782;2022-07-12T05:13:00;14.80;99.90
39847;DHT22;25517;52.422;10.782;2022-07-12T05:15:25;14.90;99.90
39847;DHT22;25517;52.422;10.782;2022-07-12T05:17:50;15.00;99.90
39847;DHT22;25517;52.422;10.782;2022-07-12T05:20:16;15.00;99.90
39847;DHT22;25517;52.422;10.782;2022-07-12T05:22:41;15.00;99.90
39847;DHT22;25517;52.422;10.782;2022-07-12T05:25:07;15.20;99.90
39847;DHT22;25517;52.422;10.782;2022-07-12T05:27:36;15.30;99.90
39847;DHT22;25517;52.422;10.782;2022-07-12T05:30:05;15.30;99.90
39847;DHT22;25517;52.422;10.782;2022-07-12T05:32:31;15.40;99.90
39847;DHT22;25517;52.422;10.782;2022-07-12T05:34:56;15.60;99.90
39847;DHT22;25517;52.422;10.782;2022-07-12T05:37:22;15.60;99.90
39847;DHT22;25517;52.422;10.782;2022-07-12T05:39:54;15.70;99.90
39847;DHT22;25517;52.422;10.782;2022-07-12T05:42:19;15.80;99.90
39847;DHT22;25517;52.422;10.782;2022-07-12T05:44:45;15.80;99.90
39847;DHT22;25517;52.422;10.782;2022-07-12T05:47:11;15.90;99.90
39847;DHT22;25517;52.422;10.782;2022-07-12T05:49:37;16.00;99.90
39847;DHT22;25517;52.422;10.782;2022-07-12T05:52:03;16.00;99.90
39847;DHT22;25517;52.422;10.782;2022-07-12T05:54:47;16.10;99.90
39847;DHT22;25517;52.422;10.782;2022-07-12T05:57:14;16.10;99.90
39847;DHT22;25517;52.422;10.782;2022-07-12T05:59:40;16.30;99.90
39847;DHT22;25517;52.422;10.782;2022-07-12T06:02:06;16.30;99.90
39847;DHT22;25517;52.422;10.782;2022-07-12T06:04:31;16.40;99.90
39847;DHT22;25517;52.422;10.782;2022-07-12T06:06:57;16.50;99.90
39847;DHT22;25517;52.422;10.782;2022-07-12T06:09:22;16.60;99.90
39847;DHT22;25517;52.422;10.782;2022-07-12T06:11:48;16.70;99.90
39847;DHT22;25517;52.422;10.782;2022-07-12T06:14:13;16.80;99.90
39847;DHT22;25517;52.422;10.782;2022-07-12T06:16:39;16.90;99.90
39847;DHT22;25517;52.422;10.782;2022-07-12T06:19:04;17.00;99.90
39847;DHT22;25517;52.422;10.782;2022-07-12T06:21:30;17.10;99.90
39847;DHT22;25517;52.422;10.782;2022-07-12T06:23:56;17.20;99.90
39847;DHT22;25517;52.422;10.782;2022-07-12T06:26:21;17.30;99.90
39847;DHT22;25517;52.422;10.782;2022-07-12T06:28:47;17.30;99.90
39847;DHT22;25517;52.422;10.782;2022-07-12T06:31:12;17.40;99.90
39847;DHT22;25517;52.422;10.782;2022-07-12T06:33:38;17.50;99.90
39847;DHT22;25517;52.422;10.782;2022-07-12T06:36:03;17.50;99.90
39847;DHT22;25517;52.422;10.782;2022-07-12T06:38:29;17.50;99.90
39847;DHT22;25517;52.422;10.782;2022-07-12T06:40:55;17.30;99.90
39847;DHT22;25517;52.422;10.782;2022-07-12T06:43:20;17.20;99.90
39847;DHT22;25517;52.422;10.782;2022-07-12T06:45:46;17.30;99.90
39847;DHT22;25517;52.422;10.782;2022-07-12T06:48:11;17.30;99.90
39847;DHT22;25517;52.422;10.782;2022-07-12T06:50:37;17.30;99.90
39847;DHT22;25517;52.422;10.782;2022-07-12T06:53:03;17.50;99.90
39847;DHT22;25517;52.422;10.782;2022-07-12T06:55:28;17.60;99.90
39847;DHT22;25517;52.422;10.782;2022-07-12T06:57:55;17.70;99.90
39847;DHT22;25517;52.422;10.782;2022-07-12T07:00:21;17.60;99.90
39847;DHT22;25517;52.422;10.782;2022-07-12T07:02:46;17.60;99.90
39847;DHT22;25517;52.422;10.782;2022-07-12T07:05:12;17.70;99.90
39847;DHT22;25517;52.422;10.782;2022-07-12T07:07:37;17.50;99.90
39847;DHT22;25517;52.422;10.782;2022-07-12T07:10:05;17.70;99.90
39847;DHT22;25517;52.422;10.782;2022-07-12T07:12:31;17.90;99.90
39847;DHT22;25517;52.422;10.782;2022-07-12T07:14:56;18.10;99.90
39847;DHT22;25517;52.422;10.782;2022-07-12T07:17:22;18.10;99.90
39847;DHT22;25517;52.422;10.782;2022-07-12T07:19:47;18.30;99.90
39847;DHT22;25517;52.422;10.782;2022-07-12T07:22:13;18.40;99.90
39847;DHT22;25517;52.422;10.782;2022-07-12T07:24:39;18.50;99.90
39847;DHT22;25517;52.422;10.782;2022-07-12T07:27:05;18.60;99.90
39847;DHT22;25517;52.422;10.782;2022-07-12T07:29:30;18.80;99.90
39847;DHT22;25517;52.422;10.782;2022-07-12T07:32:15;18.70;99.90
39847;DHT22;25517;52.422;10.782;2022-07-12T07:34:40;18.70;99.90
39847;DHT22;25517;52.422;10.782;2022-07-12T07:37:07;18.80;99.90
39847;DHT22;25517;52.422;10.782;2022-07-12T07:39:33;18.80;99.90
39847;DHT22;25517;52.422;10.782;2022-07-12T07:41:59;18.80;99.90
39847;DHT22;25517;52.422;10.782;2022-07-12T07:44:24;18.80;99.90
39847;DHT22;25517;52.422;10.782;2022-07-12T07:46:50;18.90;99.90
39847;DHT22;25517;52.422;10.782;2022-07-12T07:49:15;19.00;99.90
39847;DHT22;25517;52.422;10.782;2022-07-12T07:51:41;19.10;99.90
39847;DHT22;25517;52.422;10.782;2022-07-12T07:54:06;19.30;99.90
39847;DHT22;25517;52.422;10.782;2022-07-12T07:56:32;19.50;99.90
39847;DHT22;25517;52.422;10.782;2022-07-12T07:58:57;19.70;99.90
39847;DHT22;25517;52.422;10.782;2022-07-12T08:01:22;19.90;99.90
39847;DHT22;25517;52.422;10.782;2022-07-12T08:04:26;19.90;99.90
39847;DHT22;25517;52.422;10.782;2022-07-12T08:06:52;19.80;99.90
39847;DHT22;25517;52.422;10.782;2022-07-12T08:09:18;20.10;99.90
39847;DHT22;25517;52.422;10.782;2022-07-12T08:11:43;20.10;99.90
39847;DHT22;25517;52.422;10.782;2022-07-12T08:14:09;20.10;99.90
39847;DHT22;25517;52.422;10.782;2022-07-12T08:16:36;20.10;99.90
39847;DHT22;25517;52.422;10.782;2022-07-12T08:19:02;20.30;99.90
39847;DHT22;25517;52.422;10.782;2022-07-12T08:21:28;20.70;99.90
39847;DHT22;25517;52.422;10.782;2022-07-12T08:23:53;21.50;99.90
39847;DHT22;25517;52.422;10.782;2022-07-12T08:26:20;22.40;99.90
39847;DHT22;25517;52.422;10.782;2022-07-12T08:28:45;23.70;98.30
39847;DHT22;25517;52.422;10.782;2022-07-12T08:31:11;24.80;96.00
39847;DHT22;25517;52.422;10.782;2022-07-12T08:33:39;25.70;93.70
39847;DHT22;25517;52.422;10.782;2022-07-12T08:36:05;27.10;90.60
39847;DHT22;25517;52.422;10.782;2022-07-12T08:38:32;27.30;87.70
39847;DHT22;25517;52.422;10.782;2022-07-12T08:40:59;27.60;86.10
39847;DHT22;25517;52.422;10.782;2022-07-12T08:43:24;28.10;81.40
39847;DHT22;25517;52.422;10.782;2022-07-12T08:45:50;28.70;77.80
39847;DHT22;25517;52.422;10.782;2022-07-12T08:48:15;28.80;78.30
39847;DHT22;25517;52.422;10.782;2022-07-12T08:50:41;29.50;73.50
39847;DHT22;25517;52.422;10.782;2022-07-12T08:53:10;30.40;72.30
39847;DHT22;25517;52.422;10.782;2022-07-12T08:55:36;30.40;71.00
39847;DHT22;25517;52.422;10.782;2022-07-12T08:58:14;31.00;69.40
39847;DHT22;25517;52.422;10.782;2022-07-12T09:00:40;31.30;67.90
39847;DHT22;25517;52.422;10.782;2022-07-12T09:03:05;31.20;65.30
39847;DHT22;25517;52.422;10.782;2022-07-12T09:05:33;32.30;65.00
39847;DHT22;25517;52.422;10.782;2022-07-12T09:10:31;29.50;66.30
39847;DHT22;25517;52.422;10.782;2022-07-12T09:12:57;30.60;65.20
39847;DHT22;25517;52.422;10.782;2022-07-12T09:15:24;31.20;64.30
39847;DHT22;25517;52.422;10.782;2022-07-12T09:18:01;31.80;63.70
39847;DHT22;25517;52.422;10.782;2022-07-12T09:20:31;32.10;61.60
39847;DHT22;25517;52.422;10.782;2022-07-12T09:23:03;32.20;61.30
39847;DHT22;25517;52.422;10.782;2022-07-12T09:25:30;30.10;62.80
39847;DHT22;25517;52.422;10.782;2022-07-12T09:27:58;30.10;65.80
39847;DHT22;25517;52.422;10.782;2022-07-12T09:30:28;30.80;64.10
39847;DHT22;25517;52.422;10.782;2022-07-12T09:32:58;31.90;62.40
39847;DHT22;25517;52.422;10.782;2022-07-12T09:35:43;32.00;61.20
39847;DHT22;25517;52.422;10.782;2022-07-12T09:38:54;33.00;61.50
39847;DHT22;25517;52.422;10.782;2022-07-12T09:41:22;33.10;58.40
39847;DHT22;25517;52.422;10.782;2022-07-12T09:43:49;34.20;59.00
39847;DHT22;25517;52.422;10.782;2022-07-12T09:46:15;33.90;57.00
39847;DHT22;25517;52.422;10.782;2022-07-12T09:48:42;32.90;58.10
39847;DHT22;25517;52.422;10.782;2022-07-12T09:51:09;32.40;58.80
39847;DHT22;25517;52.422;10.782;2022-07-12T09:53:43;32.30;57.90
39847;DHT22;25517;52.422;10.782;2022-07-12T09:56:19;31.70;61.10
39847;DHT22;25517;52.422;10.782;2022-07-12T09:58:47;31.50;60.10
39847;DHT22;25517;52.422;10.782;2022-07-12T10:01:16;31.00;61.00
39847;DHT22;25517;52.422;10.782;2022-07-12T10:03:43;30.30;60.00
39847;DHT22;25517;52.422;10.782;2022-07-12T10:06:09;29.20;63.80
39847;DHT22;25517;52.422;10.782;2022-07-12T10:08:36;29.10;65.00
39847;DHT22;25517;52.422;10.782;2022-07-12T10:11:02;28.50;65.90
39847;DHT22;25517;52.422;10.782;2022-07-12T10:13:28;28.20;66.90
39847;DHT22;25517;52.422;10.782;2022-07-12T10:16:00;28.00;66.10
39847;DHT22;25517;52.422;10.782;2022-07-12T10:18:26;27.90;65.90
39847;DHT22;25517;52.422;10.782;2022-07-12T10:20:52;27.70;66.00
39847;DHT22;25517;52.422;10.782;2022-07-12T10:23:35;27.60;67.90
39847;DHT22;25517;52.422;10.782;2022-07-12T10:31:23;27.30;69.40
39847;DHT22;25517;52.422;10.782;2022-07-12T10:33:59;27.50;67.70
39847;DHT22;25517;52.422;10.782;2022-07-12T10:36:25;27.30;67.30
39847;DHT22;25517;52.422;10.782;2022-07-12T10:39:11;27.50;67.00
39847;DHT22;25517;52.422;10.782;2022-07-12T10:41:36;27.70;67.90
39847;DHT22;25517;52.422;10.782;2022-07-12T10:44:03;27.90;66.50
39847;DHT22;25517;52.422;10.782;2022-07-12T10:46:32;28.50;65.20
39847;DHT22;25517;52.422;10.782;2022-07-12T10:54:38;31.10;61.10
39847;DHT22;25517;52.422;10.782;2022-07-12T10:57:04;32.00;57.10
39847;DHT22;25517;52.422;10.782;2022-07-12T10:59:31;32.70;55.30
39847;DHT22;25517;52.422;10.782;2022-07-12T11:01:58;33.10;52.70
39847;DHT22;25517;52.422;10.782;2022-07-12T11:04:25;32.90;53.80
39847;DHT22;25517;52.422;10.782;2022-07-12T11:06:53;33.00;53.60
39847;DHT22;25517;52.422;10.782;2022-07-12T11:09:21;32.90;53.60
39847;DHT22;25517;52.422;10.782;2022-07-12T11:11:48;33.40;53.60
39847;DHT22;25517;52.422;10.782;2022-07-12T11:14:28;34.40;54.50
39847;DHT22;25517;52.422;10.782;2022-07-12T11:16:55;34.20;52.70
39847;DHT22;25517;52.422;10.782;2022-07-12T11:19:24;34.00;54.20
39847;DHT22;25517;52.422;10.782;2022-07-12T11:21:50;34.30;52.90
39847;DHT22;25517;52.422;10.782;2022-07-12T11:24:22;34.20;52.40
39847;DHT22;25517;52.422;10.782;2022-07-12T11:26:48;33.90;50.60
39847;DHT22;25517;52.422;10.782;2022-07-12T11:29:14;34.50;50.70
39847;DHT22;25517;52.422;10.782;2022-07-12T11:31:40;35.40;50.80
39847;DHT22;25517;52.422;10.782;2022-07-12T11:34:05;35.20;49.80
39847;DHT22;25517;52.422;10.782;2022-07-12T11:36:32;34.70;49.80
39847;DHT22;25517;52.422;10.782;2022-07-12T11:38:58;34.80;49.20
39847;DHT22;25517;52.422;10.782;2022-07-12T11:41:23;34.90;49.70
39847;DHT22;25517;52.422;10.782;2022-07-12T11:43:50;35.20;50.90
39847;DHT22;25517;52.422;10.782;2022-07-12T11:46:16;35.30;49.60
39847;DHT22;25517;52.422;10.782;2022-07-12T11:48:42;34.50;48.20
39847;DHT22;25517;52.422;10.782;2022-07-12T11:51:10;34.90;49.70
39847;DHT22;25517;52.422;10.782;2022-07-12T11:53:37;34.40;46.60
39847;DHT22;25517;52.422;10.782;2022-07-12T11:56:04;34.40;50.00
39847;DHT22;25517;52.422;10.782;2022-07-12T11:58:30;34.90;48.10
39847;DHT22;25517;52.422;10.782;2022-07-12T12:00:57;35.00;46.50
39847;DHT22;25517;52.422;10.782;2022-07-12T12:03:24;34.80;49.00
39847;DHT22;25517;52.422;10.782;2022-07-12T12:06:00;35.40;47.20
39847;DHT22;25517;52.422;10.782;2022-07-12T12:08:25;34.60;47.50
39847;DHT22;25517;52.422;10.782;2022-07-12T12:10:59;34.20;48.60
39847;DHT22;25517;52.422;10.782;2022-07-12T12:13:26;34.00;47.50
39847;DHT22;25517;52.422;10.782;2022-07-12T12:15:54;33.40;50.80
39847;DHT22;25517;52.422;10.782;2022-07-12T12:18:39;33.10;50.40
39847;DHT22;25517;52.422;10.782;2022-07-12T12:21:12;32.40;51.40
39847;DHT22;25517;52.422;10.782;2022-07-12T12:23:41;31.70;51.30
39847;DHT22;25517;52.422;10.782;2022-07-12T12:31:09;31.30;51.00
39847;DHT22;25517;52.422;10.782;2022-07-12T12:33:39;31.50;51.50
39847;DHT22;25517;52.422;10.782;2022-07-12T12:36:22;31.60;51.70
39847;DHT22;25517;52.422;10.782;2022-07-12T12:38:56;31.60;50.20
39847;DHT22;25517;52.422;10.782;2022-07-12T12:41:23;31.20;52.70
39847;DHT22;25517;52.422;10.782;2022-07-12T12:44:03;30.50;50.70
39847;DHT22;25517;52.422;10.782;2022-07-12T12:46:45;30.10;50.80
39847;DHT22;25517;52.422;10.782;2022-07-12T12:49:11;30.50;51.60
39847;DHT22;25517;52.422;10.782;2022-07-12T12:51:54;30.30;53.40
39847;DHT22;25517;52.422;10.782;2022-07-12T12:54:36;30.60;52.20
39847;DHT22;25517;52.422;10.782;2022-07-12T12:57:04;30.70;50.50
39847;DHT22;25517;52.422;10.782;2022-07-12T12:59:30;30.50;51.40
39847;DHT22;25517;52.422;10.782;2022-07-12T13:01:55;30.20;51.20
39847;DHT22;25517;52.422;10.782;2022-07-12T13:04:21;30.30;51.80
39847;DHT22;25517;52.422;10.782;2022-07-12T13:06:46;30.00;52.60
39847;DHT22;25517;52.422;10.782;2022-07-12T13:09:12;30.10;54.70
39847;DHT22;25517;52.422;10.782;2022-07-12T13:11:37;30.20;53.30
39847;DHT22;25517;52.422;10.782;2022-07-12T13:14:03;30.30;55.90
39847;DHT22;25517;52.422;10.782;2022-07-12T13:16:28;30.40;53.70
39847;DHT22;25517;52.422;10.782;2022-07-12T13:18:54;30.00;51.50
39847;DHT22;25517;52.422;10.782;2022-07-12T13:21:19;29.70;52.60
39847;DHT22;25517;52.422;10.782;2022-07-12T13:23:45;29.90;53.60
39847;DHT22;25517;52.422;10.782;2022-07-12T13:26:10;29.40;53.20
39847;DHT22;25517;52.422;10.782;2022-07-12T13:28:36;29.70;52.70
39847;DHT22;25517;52.422;10.782;2022-07-12T13:31:01;29.80;51.80
39847;DHT22;25517;52.422;10.782;2022-07-12T13:33:27;30.20;54.40
39847;DHT22;25517;52.422;10.782;2022-07-12T13:35:53;30.30;52.90
39847;DHT22;25517;52.422;10.782;2022-07-12T13:38:18;30.00;51.50
39847;DHT22;25517;52.422;10.782;2022-07-12T13:40:44;29.70;52.40
39847;DHT22;25517;52.422;10.782;2022-07-12T13:43:10;29.90;52.20
39847;DHT22;25517;52.422;10.782;2022-07-12T13:45:35;30.20;54.40
39847;DHT22;25517;52.422;10.782;2022-07-12T13:48:01;30.00;52.30
39847;DHT22;25517;52.422;10.782;2022-07-12T13:50:27;29.70;51.50
39847;DHT22;25517;52.422;10.782;2022-07-12T13:52:53;30.00;53.80
39847;DHT22;25517;52.422;10.782;2022-07-12T13:55:19;30.10;52.30
39847;DHT22;25517;52.422;10.782;2022-07-12T13:57:45;30.00;53.00
39847;DHT22;25517;52.422;10.782;2022-07-12T14:00:14;30.10;51.60
39847;DHT22;25517;52.422;10.782;2022-07-12T14:02:48;30.20;50.80
39847;DHT22;25517;52.422;10.782;2022-07-12T14:05:14;30.40;50.70
39847;DHT22;25517;52.422;10.782;2022-07-12T14:07:41;30.50;50.80
39847;DHT22;25517;52.422;10.782;2022-07-12T14:10:08;30.50;50.50
39847;DHT22;25517;52.422;10.782;2022-07-12T14:12:34;30.60;48.90
39847;DHT22;25517;52.422;10.782;2022-07-12T14:15:00;30.50;49.90
39847;DHT22;25517;52.422;10.782;2022-07-12T14:17:44;30.50;49.10
39847;DHT22;25517;52.422;10.782;2022-07-12T14:20:11;30.60;49.20
39847;DHT22;25517;52.422;10.782;2022-07-12T14:22:40;30.50;51.30
39847;DHT22;25517;52.422;10.782;2022-07-12T14:25:07;30.60;48.60
39847;DHT22;25517;52.422;10.782;2022-07-12T14:27:37;30.70;49.90
39847;DHT22;25517;52.422;10.782;2022-07-12T14:30:04;30.90;52.20
39847;DHT22;25517;52.422;10.782;2022-07-12T14:32:31;30.80;48.20
39847;DHT22;25517;52.422;10.782;2022-07-12T14:34:57;30.70;48.20
39847;DHT22;25517;52.422;10.782;2022-07-12T14:37:22;30.70;49.40
39847;DHT22;25517;52.422;10.782;2022-07-12T14:39:48;30.60;48.90
39847;DHT22;25517;52.422;10.782;2022-07-12T14:42:14;30.60;50.20
39847;DHT22;25517;52.422;10.782;2022-07-12T14:44:39;30.50;49.70
39847;DHT22;25517;52.422;10.782;2022-07-12T14:47:05;30.40;50.30
39847;DHT22;25517;52.422;10.782;2022-07-12T14:49:30;30.40;50.40
39847;DHT22;25517;52.422;10.782;2022-07-12T14:51:56;30.40;50.00
39847;DHT22;25517;52.422;10.782;2022-07-12T14:54:22;30.30;50.50
39847;DHT22;25517;52.422;10.782;2022-07-12T14:56:48;30.20;49.00
39847;DHT22;25517;52.422;10.782;2022-07-12T14:59:13;30.20;49.60
39847;DHT22;25517;52.422;10.782;2022-07-12T15:01:39;30.10;50.00
39847;DHT22;25517;52.422;10.782;2022-07-12T15:04:04;30.00;48.40
39847;DHT22;25517;52.422;10.782;2022-07-12T15:06:30;30.00;49.40
39847;DHT22;25517;52.422;10.782;2022-07-12T15:08:56;29.80;50.10
39847;DHT22;25517;52.422;10.782;2022-07-12T15:11:22;29.90;50.90
39847;DHT22;25517;52.422;10.782;2022-07-12T15:13:48;29.90;49.80
39847;DHT22;25517;52.422;10.782;2022-07-12T15:16:14;30.00;50.80
39847;DHT22;25517;52.422;10.782;2022-07-12T15:18:40;30.10;50.70
39847;DHT22;25517;52.422;10.782;2022-07-12T15:21:06;30.00;50.00
39847;DHT22;25517;52.422;10.782;2022-07-12T15:23:31;30.10;51.00
39847;DHT22;25517;52.422;10.782;2022-07-12T15:25:57;30.10;51.40
39847;DHT22;25517;52.422;10.782;2022-07-12T15:28:25;29.90;49.50
39847;DHT22;25517;52.422;10.782;2022-07-12T15:30:51;29.80;50.40
39847;DHT22;25517;52.422;10.782;2022-07-12T15:33:16;29.70;50.60